| time (UTC) | temp C | wind direction | speed KPH | gust KPH | rain 1hr cm | rain 24hr cm | rain mn cm | humidity % | barometer mb |
| 20260510143602 | 13 | 277 | 9.7 | 14.5 | 0.00 | 0.28 | 0.28 | 48 | 1009.2 |
| 20260510142702 | 13 | 300 | 6.4 | 9.7 | 0.00 | 0.28 | 0.28 | 53 | 1009.4 |
| 20260510141823 | 13 | 282 | 3.2 | 3.2 | 0.00 | 0.28 | 0.28 | 50 | 1009.2 |
| 20260510140923 | 13 | 283 | 6.4 | 9.7 | 0.00 | 0.28 | 0.28 | 52 | 1009.0 |
| 20260510140002 | 13 | 283 | 16.1 | 17.7 | 0.00 | 0.28 | 0.28 | 55 | 1009.3 |
| 20260510135402 | 13 | 285 | 11.3 | 17.7 | 0.00 | 0.28 | 0.28 | 54 | 1009.2 |
| 20260510134523 | 13 | 328 | 3.2 | 6.4 | 0.00 | 0.28 | 0.28 | 55 | 1009.0 |
| 20260510133602 | 12 | 278 | 6.4 | 6.4 | 0.00 | 0.28 | 0.28 | 58 | 1008.8 |
| 20260510132703 | 12 | 263 | 11.3 | 17.7 | 0.00 | 0.28 | 0.28 | 60 | 1008.8 |
| 20260510131802 | 13 | 285 | 4.8 | 6.4 | 0.00 | 0.28 | 0.28 | 59 | 1008.6 |
| 20260510130902 | 12 | 287 | 4.8 | 9.7 | 0.00 | 0.28 | 0.28 | 63 | 1008.7 |
| 20260510130023 | 12 | 281 | 6.4 | 16.1 | 0.00 | 0.28 | 0.28 | 62 | 1008.6 |
| 20260510125402 | 12 | 277 | 11.3 | 16.1 | 0.00 | 0.28 | 0.28 | 62 | 1008.6 |
| 20260510124502 | 12 | 275 | 3.2 | 3.2 | 0.00 | 0.28 | 0.28 | 67 | 1008.3 |
| 20260510123623 | 12 | 289 | 4.8 | 6.4 | 0.00 | 0.28 | 0.28 | 65 | 1008.2 |
| 20260510122703 | 12 | 303 | 3.2 | 4.8 | 0.00 | 0.28 | 0.28 | 65 | 1008.0 |
| 20260510121802 | 12 | 294 | 4.8 | 6.4 | 0.00 | 0.28 | 0.28 | 65 | 1008.0 |
| 20260510120902 | 11 | 292 | 9.7 | 14.5 | 0.00 | 0.28 | 0.28 | 66 | 1007.9 |
| 20260510120002 | 11 | 298 | 3.2 | 3.2 | 0.00 | 0.28 | 0.28 | 67 | 1008.0 |
| 20260510115402 | 11 | 274 | 6.4 | 11.3 | 0.00 | 0.28 | 0.28 | 66 | 1007.7 |
| 20260510114502 | 11 | 290 | 14.5 | 22.5 | 0.00 | 0.28 | 0.28 | 70 | 1007.6 |
| 20260510113623 | 11 | 274 | 4.8 | 11.3 | 0.00 | 0.28 | 0.28 | 72 | 1007.5 |
| 20260510112702 | 11 | 265 | 6.4 | 6.4 | 0.00 | 0.28 | 0.28 | 73 | 1007.4 |
| 20260510111823 | 11 | 267 | 9.7 | 11.3 | 0.00 | 0.28 | 0.28 | 77 | 1007.5 |
| 20260510110923 | 11 | 287 | 4.8 | 11.3 | 0.00 | 0.28 | 0.28 | 79 | 1007.3 |
| 20260510110002 | 11 | 259 | 8.0 | 9.7 | 0.00 | 0.28 | 0.28 | 82 | 1006.9 |
| 20260510105402 | 10 | 270 | 3.2 | 6.4 | 0.03 | 0.28 | 0.28 | 84 | 1007.1 |
| 20260510104502 | 11 | 258 | 6.4 | 11.3 | 0.03 | 0.28 | 0.28 | 84 | 1006.8 |
| 20260510103602 | 10 | 275 | 3.2 | 14.5 | 0.03 | 0.28 | 0.28 | 84 | 1006.7 |
| 20260510102702 | 10 | 265 | 4.8 | 6.4 | 0.03 | 0.28 | 0.28 | 86 | 1006.3 |
| 20260510101802 | 10 | 249 | 0.0 | 3.2 | 0.03 | 0.28 | 0.28 | 88 | 1006.0 |
| 20260510100923 | 10 | 255 | 3.2 | 6.4 | 0.03 | 0.28 | 0.28 | 90 | 1006.2 |
| 20260510100003 | 10 | 249 | 6.4 | 11.3 | 0.03 | 0.28 | 0.28 | 90 | 1006.2 |
| 20260510095402 | 10 | 263 | 1.6 | 4.8 | 0.00 | 0.25 | 0.25 | 90 | 1006.0 |
| 20260510094523 | 11 | 261 | 14.5 | 16.1 | 0.00 | 0.25 | 0.25 | 90 | 1006.3 |
| 20260510093602 | 11 | 267 | 1.6 | 1.6 | 0.00 | 0.25 | 0.25 | 89 | 1006.0 |
| 20260510092702 | 11 | 262 | 6.4 | 11.3 | 0.00 | 0.25 | 0.25 | 89 | 1005.8 |
| 20260510091803 | 10 | 271 | 3.2 | 6.4 | 0.00 | 0.25 | 0.25 | 90 | 1005.8 |
| 20260510090902 | 11 | 249 | 6.4 | 6.4 | 0.00 | 0.25 | 0.25 | 89 | 1005.6 |
| 20260510090002 | 11 | 258 | 9.7 | 14.5 | 0.00 | 0.25 | 0.25 | 89 | 1005.9 |
| 20260510085402 | 11 | 266 | 9.7 | 11.3 | 0.00 | 0.25 | 0.25 | 89 | 1005.3 |
| 20260510084502 | 11 | 251 | 4.8 | 11.3 | 0.00 | 0.25 | 0.25 | 90 | 1005.6 |
| 20260510083602 | 10 | 243 | 1.6 | 4.8 | 0.00 | 0.25 | 0.25 | 90 | 1005.3 |
| 20260510082724 | 11 | 264 | 8.0 | 11.3 | 0.00 | 0.25 | 0.25 | 89 | 1005.2 |
| 20260510081802 | 11 | 264 | 1.6 | 9.7 | 0.00 | 0.25 | 0.25 | 89 | 1005.2 |
| 20260510080902 | 11 | 257 | 3.2 | 9.7 | 0.00 | 0.25 | 0.25 | 89 | 1005.2 |
| 20260510080002 | 11 | 245 | 3.2 | 12.9 | 0.00 | 0.25 | 0.25 | 89 | 1005.0 |
| 20260510075402 | 11 | 259 | 8.0 | 11.3 | 0.00 | 0.25 | 0.25 | 89 | 1005.0 |
| 20260510074502 | 11 | 251 | 3.2 | 11.3 | 0.00 | 0.25 | 0.25 | 90 | 1004.9 |
| 20260510073602 | 11 | 262 | 4.8 | 11.3 | 0.00 | 0.25 | 0.25 | 90 | 1004.6 |
| 20260510072702 | 11 | 249 | 6.4 | 16.1 | 0.00 | 0.25 | 0.25 | 89 | 1004.7 |
| 20260510071803 | 11 | 258 | 3.2 | 6.4 | 0.00 | 0.25 | 0.25 | 90 | 1004.7 |
| 20260510070902 | 11 | 249 | 4.8 | 9.7 | 0.00 | 0.25 | 0.25 | 90 | 1004.6 |
| 20260510070002 | 10 | 288 | 8.0 | 11.3 | 0.00 | 0.25 | 0.25 | 92 | 1004.7 |
| 20260510065403 | 10 | 247 | 3.2 | 4.8 | 0.00 | 0.25 | 0.25 | 93 | 1004.8 |
| 20260510064523 | 10 | 249 | 3.2 | 3.2 | 0.00 | 0.25 | 0.25 | 93 | 1004.6 |
| 20260510063603 | 10 | 231 | 1.6 | 3.2 | 0.00 | 0.25 | 0.25 | 94 | 1004.6 |
| 20260510062723 | 10 | 222 | 1.6 | 4.8 | 0.00 | 0.25 | 0.25 | 94 | 1004.5 |
| 20260510061823 | 10 | 225 | 1.6 | 3.2 | 0.03 | 0.25 | 0.25 | 94 | 1004.5 |
| 20260510060902 | 10 | 282 | 3.2 | 6.4 | 0.05 | 0.25 | 0.25 | 94 | 1004.5 |
| 20260510060002 | 10 | 215 | 0.0 | 3.2 | 0.08 | 0.25 | 0.25 | 94 | 1004.5 |
| 20260510055423 | 10 | 225 | 1.6 | 3.2 | 0.10 | 0.25 | 0.25 | 94 | 1004.3 |
| 20260510054502 | 10 | 190 | 3.2 | 4.8 | 0.13 | 0.25 | 0.25 | 94 | 1004.3 |
| 20260510053624 | 10 | 158 | 1.6 | 1.6 | 0.18 | 0.25 | 0.25 | 94 | 1004.0 |
| 20260510052702 | 9 | 243 | 3.2 | 3.2 | 0.25 | 0.25 | 0.25 | 93 | 1004.4 |
| 20260510051802 | 10 | 147 | 1.6 | 3.2 | 0.23 | 0.23 | 0.23 | 93 | 1004.8 |
| 20260510050902 | 10 | 178 | 0.0 | 3.2 | 0.20 | 0.20 | 0.20 | 92 | 1004.8 |
| 20260510050002 | 10 | 200 | 3.2 | 4.8 | 0.18 | 0.18 | 0.18 | 91 | 1004.8 |
| 20260510045402 | 10 | 283 | 1.6 | 6.4 | 0.15 | 0.15 | 0.15 | 91 | 1004.6 |
| 20260510044502 | 10 | 286 | 4.8 | 6.4 | 0.13 | 0.13 | 0.13 | 89 | 1005.1 |
| 20260510043602 | 10 | 214 | 3.2 | 3.2 | 0.08 | 0.08 | 0.08 | 86 | 1005.1 |
| 20260510042702 | 10 | 232 | 1.6 | 3.2 | 0.00 | 0.00 | 0.00 | 84 | 1004.7 |
| 20260510041802 | 10 | 163 | 0.0 | 3.2 | 0.00 | 0.00 | 0.00 | 82 | 1004.3 |
| 20260510040902 | 10 | 160 | 3.2 | 3.2 | 0.00 | 0.00 | 0.00 | 81 | 1003.9 |
| 20260510040005 | 10 | 145 | 0.0 | 1.6 | 0.00 | 0.00 | 0.00 | 81 | 1004.0 |
| 20260510035402 | 10 | 148 | 0.0 | 0.0 | 0.00 | 0.00 | 0.00 | 81 | 1004.1 |
| 20260510034502 | 10 | 143 | 1.6 | 1.6 | 0.00 | 0.00 | 0.00 | 81 | 1003.8 |
| 20260510033602 | 10 | 172 | 3.2 | 6.4 | 0.00 | 0.00 | 0.00 | 81 | 1004.1 |
| 20260510032702 | 10 | 141 | 1.6 | 3.2 | 0.00 | 0.00 | 0.00 | 81 | 1004.3 |
| 20260510031802 | 10 | 148 | 3.2 | 6.4 | 0.00 | 0.00 | 0.00 | 81 | 1004.0 |
| 20260510030902 | 10 | 176 | 3.2 | 4.8 | 0.00 | 0.00 | 0.00 | 81 | 1003.9 |
| 20260510030002 | 10 | 139 | 3.2 | 6.4 | 0.00 | 0.00 | 0.00 | 81 | 1004.0 |
| 20260510025402 | 10 | 156 | 3.2 | 6.4 | 0.00 | 0.00 | 0.00 | 81 | 1004.0 |
| 20260510024504 | 10 | 190 | 0.0 | 1.6 | 0.00 | 0.00 | 0.00 | 81 | 1004.0 |
| 20260510023602 | 10 | 135 | 0.0 | 1.6 | 0.00 | 0.00 | 0.00 | 80 | 1004.4 |
| 20260510022723 | 11 | 132 | 0.0 | 4.8 | 0.00 | 0.00 | 0.00 | 79 | 1004.8 |
| 20260510021802 | 11 | 149 | 1.6 | 3.2 | 0.00 | 0.00 | 0.00 | 79 | 1004.8 |
| 20260510020902 | 11 | 132 | 0.0 | 3.2 | 0.00 | 0.00 | 0.00 | 79 | 1004.8 |
| 20260510020002 | 11 | 156 | 0.0 | 3.2 | 0.00 | 0.00 | 0.00 | 79 | 1004.8 |
| 20260510015402 | 11 | 141 | 3.2 | 3.2 | 0.00 | 0.00 | 0.00 | 78 | 1005.0 |
| 20260510014502 | 11 | 171 | 0.0 | 3.2 | 0.00 | 0.00 | 0.00 | 78 | 1005.2 |
| 20260510013602 | 11 | 193 | 0.0 | 3.2 | 0.00 | 0.00 | 0.00 | 79 | 1005.0 |
| 20260510012702 | 11 | 123 | 0.0 | 1.6 | 0.00 | 0.00 | 0.00 | 79 | 1005.1 |
| 20260510011802 | 11 | 160 | 3.2 | 4.8 | 0.00 | 0.00 | 0.00 | 78 | 1005.1 |
| 20260510010902 | 11 | 148 | 6.4 | 9.7 | 0.00 | 0.00 | 0.00 | 78 | 1005.3 |
| 20260510010025 | 11 | 138 | 1.6 | 3.2 | 0.00 | 0.00 | 0.00 | 77 | 1005.1 |
| 20260510005423 | 11 | 169 | 3.2 | 3.2 | 0.00 | 0.00 | 0.00 | 76 | 1005.1 |
| 20260510004504 | 11 | 166 | 1.6 | 1.6 | 0.00 | 0.00 | 0.00 | 76 | 1004.9 |
| 20260510003602 | 12 | 147 | 0.0 | 1.6 | 0.00 | 0.00 | 0.00 | 75 | 1004.7 |
| 20260510002702 | 12 | 134 | 3.2 | 4.8 | 0.00 | 0.00 | 0.00 | 74 | 1004.6 |
| 20260510001823 | 12 | 127 | 4.8 | 6.4 | 0.00 | 0.00 | 0.00 | 74 | 1004.9 |
| 20260510000902 | 12 | 165 | 0.0 | 1.6 | 0.00 | 0.00 | 0.00 | 74 | 1004.6 |
| 20260510000023 | 12 | 167 | 1.6 | 4.8 | 0.00 | 0.00 | 0.00 | 73 | 1004.9 |
| 20260509235402 | 12 | 156 | 1.6 | 6.4 | 0.00 | 0.00 | 0.00 | 73 | 1004.8 |
| 20260509234523 | 12 | 130 | 6.4 | 9.7 | 0.00 | 0.00 | 0.00 | 72 | 1004.3 |
| 20260509233602 | 12 | 149 | 3.2 | 9.7 | 0.00 | 0.00 | 0.00 | 71 | 1004.7 |
| 20260509232702 | 13 | 172 | 4.8 | 9.7 | 0.00 | 0.00 | 0.00 | 70 | 1004.5 |
| 20260509231802 | 13 | 131 | 6.4 | 14.5 | 0.00 | 0.00 | 0.00 | 68 | 1004.7 |
| 20260509230902 | 13 | 182 | 3.2 | 4.8 | 0.00 | 0.00 | 0.00 | 66 | 1004.5 |
| 20260509230003 | 14 | 121 | 9.7 | 11.3 | 0.00 | 0.00 | 0.00 | 65 | 1004.7 |
| 20260509225402 | 14 | 146 | 6.4 | 9.7 | 0.00 | 0.00 | 0.00 | 64 | 1004.4 |
| 20260509224502 | 14 | 123 | 3.2 | 4.8 | 0.00 | 0.00 | 0.00 | 63 | 1004.5 |
| 20260509223623 | 15 | 145 | 3.2 | 4.8 | 0.00 | 0.00 | 0.00 | 61 | 1004.6 |
| 20260509222723 | 15 | 166 | 3.2 | 4.8 | 0.00 | 0.00 | 0.00 | 60 | 1005.0 |
| 20260509221802 | 15 | 152 | 1.6 | 3.2 | 0.00 | 0.00 | 0.00 | 58 | 1004.7 |
| 20260509220902 | 15 | 149 | 4.8 | 17.7 | 0.00 | 0.00 | 0.00 | 57 | 1004.8 |
| 20260509220003 | 16 | 113 | 3.2 | 14.5 | 0.00 | 0.00 | 0.00 | 55 | 1004.9 |
| 20260509215402 | 16 | 156 | 6.4 | 11.3 | 0.00 | 0.00 | 0.00 | 55 | 1004.7 |
| 20260509214502 | 16 | 103 | 4.8 | 6.4 | 0.00 | 0.00 | 0.00 | 54 | 1004.7 |
| 20260509213602 | 16 | 136 | 6.4 | 12.9 | 0.00 | 0.00 | 0.00 | 53 | 1004.9 |
| 20260509212702 | 16 | 113 | 3.2 | 6.4 | 0.00 | 0.00 | 0.00 | 52 | 1004.6 |
| 20260509211802 | 16 | 112 | 8.0 | 11.3 | 0.00 | 0.00 | 0.00 | 51 | 1004.7 |
| 20260509210923 | 16 | 121 | 4.8 | 9.7 | 0.00 | 0.00 | 0.00 | 50 | 1005.0 |
| 20260509210003 | 17 | 149 | 6.4 | 9.7 | 0.00 | 0.00 | 0.00 | 47 | 1005.0 |
| 20260509205424 | 17 | 175 | 1.6 | 4.8 | 0.00 | 0.00 | 0.00 | 47 | 1005.0 |
| 20260509204502 | 17 | 180 | 3.2 | 9.7 | 0.00 | 0.00 | 0.00 | 46 | 1004.9 |
| 20260509203602 | 18 | 123 | 11.3 | 17.7 | 0.00 | 0.00 | 0.00 | 42 | 1005.0 |
| 20260509202702 | 18 | 77 | 4.8 | 9.7 | 0.00 | 0.00 | 0.00 | 38 | 1005.0 |
| 20260509201803 | 18 | 126 | 6.4 | 9.7 | 0.00 | 0.00 | 0.00 | 37 | 1005.0 |
| 20260509200902 | 18 | 131 | 4.8 | 14.5 | 0.00 | 0.00 | 0.00 | 35 | 1005.2 |
| 20260509200002 | 18 | 110 | 12.9 | 16.1 | 0.00 | 0.00 | 0.00 | 34 | 1005.3 |
| 20260509195402 | 18 | 141 | 4.8 | 9.7 | 0.00 | 0.00 | 0.00 | 34 | 1005.3 |
| 20260509194502 | 18 | 164 | 3.2 | 9.7 | 0.00 | 0.00 | 0.00 | 33 | 1005.5 |
| 20260509193603 | 18 | 119 | 4.8 | 6.4 | 0.00 | 0.00 | 0.00 | 31 | 1005.5 |
| 20260509192702 | 18 | 137 | 4.8 | 11.3 | 0.00 | 0.00 | 0.00 | 28 | 1005.6 |
| 20260509191802 | 19 | 112 | 3.2 | 6.4 | 0.00 | 0.00 | 0.00 | 30 | 1005.7 |
| 20260509190903 | 19 | 147 | 6.4 | 9.7 | 0.00 | 0.00 | 0.00 | 28 | 1005.6 |
| 20260509190002 | 19 | 231 | 1.6 | 16.1 | 0.00 | 0.00 | 0.00 | 28 | 1006.0 |
| 20260509185402 | 18 | 125 | 3.2 | 4.8 | 0.00 | 0.00 | 0.00 | 29 | 1005.9 |
| 20260509184502 | 19 | 192 | 4.8 | 9.7 | 0.00 | 0.00 | 0.00 | 27 | 1006.1 |
| 20260509183602 | 18 | 110 | 0.0 | 4.8 | 0.00 | 0.00 | 0.00 | 28 | 1006.3 |
| 20260509182702 | 18 | 114 | 3.2 | 12.9 | 0.00 | 0.00 | 0.00 | 27 | 1006.1 |
| 20260509181802 | 18 | 120 | 8.0 | 11.3 | 0.00 | 0.00 | 0.00 | 25 | 1006.3 |
| 20260509180902 | 18 | 145 | 6.4 | 11.3 | 0.00 | 0.00 | 0.00 | 26 | 1006.4 |
| 20260509180003 | 18 | 134 | 6.4 | 6.4 | 0.00 | 0.00 | 0.00 | 26 | 1006.5 |
| 20260509175402 | 18 | 135 | 3.2 | 4.8 | 0.00 | 0.00 | 0.00 | 26 | 1006.6 |
| 20260509174502 | 18 | 119 | 3.2 | 12.9 | 0.00 | 0.00 | 0.00 | 28 | 1006.5 |
| 20260509173604 | 18 | 132 | 9.7 | 17.7 | 0.00 | 0.00 | 0.00 | 28 | 1006.8 |
| 20260509172702 | 18 | 132 | 8.0 | 12.9 | 0.00 | 0.00 | 0.00 | 27 | 1007.2 |
| 20260509171803 | 18 | 132 | 3.2 | 4.8 | 0.00 | 0.00 | 0.00 | 28 | 1007.5 |
| 20260509170902 | 18 | 152 | 1.6 | 4.8 | 0.00 | 0.00 | 0.00 | 28 | 1007.2 |
| 20260509170002 | 18 | 109 | 6.4 | 9.7 | 0.00 | 0.00 | 0.00 | 27 | 1007.6 |
| 20260509165402 | 19 | 128 | 4.8 | 9.7 | 0.00 | 0.00 | 0.00 | 28 | 1007.7 |
| 20260509164503 | 18 | 84 | 3.2 | 4.8 | 0.00 | 0.00 | 0.00 | 29 | 1007.7 |
| 20260509163602 | 18 | 125 | 1.6 | 9.7 | 0.00 | 0.00 | 0.00 | 28 | 1007.9 |
| 20260509162724 | 18 | 120 | 4.8 | 9.7 | 0.00 | 0.00 | 0.00 | 28 | 1008.1 |
| 20260509161802 | 18 | 113 | 3.2 | 6.4 | 0.00 | 0.00 | 0.00 | 26 | 1008.2 |
| 20260509160902 | 18 | 170 | 1.6 | 6.4 | 0.00 | 0.00 | 0.00 | 28 | 1008.5 |
| 20260509160023 | 18 | 146 | 3.2 | 9.7 | 0.00 | 0.00 | 0.00 | 29 | 1008.7 |
| 20260509155402 | 17 | 154 | 3.2 | 3.2 | 0.00 | 0.00 | 0.00 | 28 | 1008.6 |
| 20260509154502 | 17 | 137 | 3.2 | 11.3 | 0.00 | 0.00 | 0.00 | 29 | 1008.9 |
| 20260509153603 | 17 | 135 | 3.2 | 9.7 | 0.00 | 0.00 | 0.00 | 31 | 1008.9 |
| 20260509152702 | 17 | 140 | 3.2 | 14.5 | 0.00 | 0.00 | 0.00 | 32 | 1009.1 |
| 20260509151823 | 16 | 124 | 3.2 | 3.2 | 0.00 | 0.00 | 0.00 | 32 | 1009.1 |
| 20260509150902 | 16 | 132 | 1.6 | 4.8 | 0.00 | 0.00 | 0.00 | 35 | 1009.4 |
| 20260509150003 | 16 | 105 | 4.8 | 6.4 | 0.00 | 0.00 | 0.00 | 33 | 1009.5 |
| 20260509145403 | 15 | 77 | 3.2 | 6.4 | 0.00 | 0.00 | 0.00 | 41 | 1009.6 |
| 20260509144523 | 15 | 87 | 3.2 | 6.4 | 0.00 | 0.00 | 0.00 | 41 | 1009.7 |